Terminal Aerodrome Forecast
Issued by NWS Charleston, WV

Current Version | Previous Version | Graphics & Text | Print | Product List | Glossary On
Versions: 1 2 3 4 5 6 7 8 9 10 11 12 13 14 15 16 17 18 19 20 21 22 23 24 25 26 27 28 29 30
000
FTUS41 KRLX 302338
TAFPKB
TAF
KPKB 302338Z 0100/0124 22006KT 6SM BR VCSH BKN035
     FM010300 22004KT 3SM BR BKN035
     FM011300 22004KT P6SM BKN035
     FM011400 24004KT P6SM SCT035
      AMD NOT SKED=

USA.gov is the U.S. government's official web portal to all federal, state and local government web resources and services.